sensor_id;sensor_type;location;lat;lon;timestamp;pressure;altitude;pressure_sealevel;temperature;humidity
69624;BME280;56843;52.020;5.670;2022-11-03T00:01:23;101241.38;;;9.13;75.39
69624;BME280;56843;52.020;5.670;2022-11-03T00:02:54;101231.69;;;9.17;75.17
69624;BME280;56843;52.020;5.670;2022-11-03T00:04:24;101238.63;;;9.18;75.06
69624;BME280;56843;52.020;5.670;2022-11-03T00:05:54;101240.38;;;9.22;75.17
69624;BME280;56843;52.020;5.670;2022-11-03T00:07:34;101238.69;;;9.26;75.04
69624;BME280;56843;52.020;5.670;2022-11-03T00:09:06;101252.97;;;9.30;74.81
69624;BME280;56843;52.020;5.670;2022-11-03T00:10:37;101240.13;;;9.32;74.99
69624;BME280;56843;52.020;5.670;2022-11-03T00:12:07;101234.19;;;9.35;74.77
69624;BME280;56843;52.020;5.670;2022-11-03T00:13:41;101238.13;;;9.38;74.92
69624;BME280;56843;52.020;5.670;2022-11-03T00:15:12;101246.63;;;9.40;74.67
69624;BME280;56843;52.020;5.670;2022-11-03T00:16:43;101239.09;;;9.42;74.64
69624;BME280;56843;52.020;5.670;2022-11-03T00:18:14;101235.53;;;9.46;74.65
69624;BME280;56843;52.020;5.670;2022-11-03T00:19:44;101214.09;;;9.51;74.44
69624;BME280;56843;52.020;5.670;2022-11-03T00:21:15;101220.06;;;9.57;74.44
69624;BME280;56843;52.020;5.670;2022-11-03T00:22:45;101218.66;;;9.59;74.05
69624;BME280;56843;52.020;5.670;2022-11-03T00:24:16;101212.41;;;9.64;74.01
69624;BME280;56843;52.020;5.670;2022-11-03T00:25:46;101211.81;;;9.67;73.97
69624;BME280;56843;52.020;5.670;2022-11-03T00:27:17;101197.06;;;9.70;73.90
69624;BME280;56843;52.020;5.670;2022-11-03T00:28:49;101194.91;;;9.72;73.78
69624;BME280;56843;52.020;5.670;2022-11-03T00:30:20;101191.13;;;9.73;73.94
69624;BME280;56843;52.020;5.670;2022-11-03T00:31:51;101191.91;;;9.73;73.85
69624;BME280;56843;52.020;5.670;2022-11-03T00:33:21;101202.28;;;9.75;73.72
69624;BME280;56843;52.020;5.670;2022-11-03T00:34:55;101196.16;;;9.74;74.03
69624;BME280;56843;52.020;5.670;2022-11-03T00:36:28;101192.41;;;9.75;73.60
69624;BME280;56843;52.020;5.670;2022-11-03T00:37:59;101188.63;;;9.76;73.90
69624;BME280;56843;52.020;5.670;2022-11-03T00:39:30;101183.59;;;9.75;73.79
69624;BME280;56843;52.020;5.670;2022-11-03T00:41:01;101187.53;;;9.77;73.61
69624;BME280;56843;52.020;5.670;2022-11-03T00:42:32;101190.53;;;9.76;73.85
69624;BME280;56843;52.020;5.670;2022-11-03T00:44:04;101181.72;;;9.75;73.64
69624;BME280;56843;52.020;5.670;2022-11-03T00:45:35;101178.75;;;9.77;74.04
69624;BME280;56843;52.020;5.670;2022-11-03T00:47:05;101172.94;;;9.75;74.16
69624;BME280;56843;52.020;5.670;2022-11-03T00:48:36;101174.53;;;9.76;74.09
69624;BME280;56843;52.020;5.670;2022-11-03T00:50:07;101166.81;;;9.74;74.01
69624;BME280;56843;52.020;5.670;2022-11-03T00:51:38;101155.66;;;9.72;73.99
69624;BME280;56843;52.020;5.670;2022-11-03T00:53:08;101157.06;;;9.70;74.09
69624;BME280;56843;52.020;5.670;2022-11-03T00:54:39;101153.31;;;9.71;74.17
69624;BME280;56843;52.020;5.670;2022-11-03T00:56:15;101151.44;;;9.71;74.14
69624;BME280;56843;52.020;5.670;2022-11-03T00:57:46;101149.84;;;9.70;74.38
69624;BME280;56843;52.020;5.670;2022-11-03T00:59:17;101144.03;;;9.68;74.30
69624;BME280;56843;52.020;5.670;2022-11-03T01:00:47;101144.34;;;9.67;74.22
69624;BME280;56843;52.020;5.670;2022-11-03T01:02:18;101142.28;;;9.63;74.31
69624;BME280;56843;52.020;5.670;2022-11-03T01:03:51;101150.28;;;9.63;74.47
69624;BME280;56843;52.020;5.670;2022-11-03T01:05:42;101136.81;;;9.60;74.78
69624;BME280;56843;52.020;5.670;2022-11-03T01:07:31;101143.22;;;9.59;74.69
69624;BME280;56843;52.020;5.670;2022-11-03T01:09:01;101153.09;;;9.58;74.67
69624;BME280;56843;52.020;5.670;2022-11-03T01:10:35;101140.88;;;9.57;74.92
69624;BME280;56843;52.020;5.670;2022-11-03T01:12:09;101141.66;;;9.58;75.07
69624;BME280;56843;52.020;5.670;2022-11-03T01:13:40;101143.53;;;9.57;74.70
69624;BME280;56843;52.020;5.670;2022-11-03T01:15:10;101149.66;;;9.58;74.82
69624;BME280;56843;52.020;5.670;2022-11-03T01:16:41;101151.53;;;9.57;75.02
69624;BME280;56843;52.020;5.670;2022-11-03T01:18:12;101151.53;;;9.57;75.13
69624;BME280;56843;52.020;5.670;2022-11-03T01:19:42;101144.31;;;9.58;75.11
69624;BME280;56843;52.020;5.670;2022-11-03T01:21:13;101135.53;;;9.57;75.23
69624;BME280;56843;52.020;5.670;2022-11-03T01:22:44;101143.53;;;9.57;75.34
69624;BME280;56843;52.020;5.670;2022-11-03T01:24:14;101138.34;;;9.61;75.27
69624;BME280;56843;52.020;5.670;2022-11-03T01:25:45;101134.94;;;9.60;75.11
69624;BME280;56843;52.020;5.670;2022-11-03T01:27:17;101121.28;;;9.62;75.43
69624;BME280;56843;52.020;5.670;2022-11-03T01:28:48;101129.28;;;9.62;75.24
69624;BME280;56843;52.020;5.670;2022-11-03T01:30:19;101127.69;;;9.61;75.35
69624;BME280;56843;52.020;5.670;2022-11-03T01:31:49;101126.13;;;9.60;75.34
69624;BME280;56843;52.020;5.670;2022-11-03T01:33:20;101119.22;;;9.59;75.22
69624;BME280;56843;52.020;5.670;2022-11-03T01:34:51;101118.44;;;9.58;75.50
69624;BME280;56843;52.020;5.670;2022-11-03T01:36:21;101109.66;;;9.58;75.65
69624;BME280;56843;52.020;5.670;2022-11-03T01:37:53;101110.41;;;9.58;75.90
69624;BME280;56843;52.020;5.670;2022-11-03T01:39:25;101106.53;;;9.56;75.58
69624;BME280;56843;52.020;5.670;2022-11-03T01:40:56;101103.53;;;9.57;75.61
69624;BME280;56843;52.020;5.670;2022-11-03T01:42:26;101090.53;;;9.56;75.78
69624;BME280;56843;52.020;5.670;2022-11-03T01:44:28;101090.19;;;9.57;76.06
69624;BME280;56843;52.020;5.670;2022-11-03T01:46:24;101098.81;;;9.54;76.01
69624;BME280;56843;52.020;5.670;2022-11-03T01:47:55;101093.00;;;9.52;76.05
69624;BME280;56843;52.020;5.670;2022-11-03T01:49:48;101097.53;;;9.52;76.28
69624;BME280;56843;52.020;5.670;2022-11-03T01:51:22;101087.78;;;9.47;76.38
69624;BME280;56843;52.020;5.670;2022-11-03T01:52:56;101089.69;;;9.47;76.23
69624;BME280;56843;52.020;5.670;2022-11-03T01:54:28;101082.47;;;9.47;76.31
69624;BME280;56843;52.020;5.670;2022-11-03T01:55:59;101077.91;;;9.48;76.35
69624;BME280;56843;52.020;5.670;2022-11-03T01:59:31;101087.03;;;9.47;76.56
69624;BME280;56843;52.020;5.670;2022-11-03T02:03:10;101082.63;;;9.42;76.60
69624;BME280;56843;52.020;5.670;2022-11-03T02:04:42;101071.78;;;9.39;76.68
69624;BME280;56843;52.020;5.670;2022-11-03T02:06:13;101069.91;;;9.39;76.81
69624;BME280;56843;52.020;5.670;2022-11-03T02:07:59;101067.53;;;9.38;76.81
69624;BME280;56843;52.020;5.670;2022-11-03T02:09:31;101070.50;;;9.36;77.14
69624;BME280;56843;52.020;5.670;2022-11-03T02:11:02;101059.06;;;9.36;77.19
69624;BME280;56843;52.020;5.670;2022-11-03T02:12:53;101063.13;;;9.33;77.00
69624;BME280;56843;52.020;5.670;2022-11-03T02:14:23;101059.69;;;9.33;77.19
69624;BME280;56843;52.020;5.670;2022-11-03T02:15:56;101060.47;;;9.33;77.24
69624;BME280;56843;52.020;5.670;2022-11-03T02:17:29;101061.56;;;9.32;77.29
69624;BME280;56843;52.020;5.670;2022-11-03T02:19:01;101061.88;;;9.31;77.38
69624;BME280;56843;52.020;5.670;2022-11-03T02:20:32;101055.75;;;9.30;77.46
69624;BME280;56843;52.020;5.670;2022-11-03T02:24:14;101059.81;;;9.28;77.71
69624;BME280;56843;52.020;5.670;2022-11-03T02:25:56;101053.72;;;9.27;77.69
69624;BME280;56843;52.020;5.670;2022-11-03T02:27:30;101065.94;;;9.28;77.59
69624;BME280;56843;52.020;5.670;2022-11-03T02:29:01;101058.25;;;9.27;77.85
69624;BME280;56843;52.020;5.670;2022-11-03T02:30:43;101055.59;;;9.27;77.75
69624;BME280;56843;52.020;5.670;2022-11-03T02:32:23;101052.13;;;9.26;77.88
69624;BME280;56843;52.020;5.670;2022-11-03T02:34:01;101047.13;;;9.25;77.93
69624;BME280;56843;52.020;5.670;2022-11-03T02:35:46;101046.31;;;9.24;77.94
69624;BME280;56843;52.020;5.670;2022-11-03T02:37:34;101047.59;;;9.27;77.84
69624;BME280;56843;52.020;5.670;2022-11-03T02:39:26;101038.81;;;9.26;77.91
69624;BME280;56843;52.020;5.670;2022-11-03T02:41:00;101043.66;;;9.24;77.96
69624;BME280;56843;52.020;5.670;2022-11-03T02:42:34;101035.66;;;9.24;78.10
69624;BME280;56843;52.020;5.670;2022-11-03T02:44:12;101023.13;;;9.25;78.17
69624;BME280;56843;52.020;5.670;2022-11-03T02:45:45;101032.22;;;9.24;78.13
69624;BME280;56843;52.020;5.670;2022-11-03T02:47:17;101031.41;;;9.23;78.25
69624;BME280;56843;52.020;5.670;2022-11-03T02:48:49;101027.19;;;9.22;78.29
69624;BME280;56843;52.020;5.670;2022-11-03T02:50:19;101022.94;;;9.21;78.31
69624;BME280;56843;52.020;5.670;2022-11-03T02:52:01;101020.00;;;9.23;78.58
69624;BME280;56843;52.020;5.670;2022-11-03T02:53:51;101020.00;;;9.23;78.42
69624;BME280;56843;52.020;5.670;2022-11-03T02:55:37;101021.84;;;9.22;78.48
69624;BME280;56843;52.020;5.670;2022-11-03T02:57:17;101020.00;;;9.23;78.36
69624;BME280;56843;52.020;5.670;2022-11-03T02:58:52;101011.19;;;9.22;78.48
69624;BME280;56843;52.020;5.670;2022-11-03T03:00:26;101017.63;;;9.21;78.41
69624;BME280;56843;52.020;5.670;2022-11-03T03:02:15;101010.72;;;9.20;78.55
69624;BME280;56843;52.020;5.670;2022-11-03T03:03:56;101002.25;;;9.18;78.73
69624;BME280;56843;52.020;5.670;2022-11-03T03:05:30;101005.69;;;9.19;78.72
69624;BME280;56843;52.020;5.670;2022-11-03T03:07:05;100998.81;;;9.18;78.75
69624;BME280;56843;52.020;5.670;2022-11-03T03:08:42;101007.13;;;9.16;78.88
69624;BME280;56843;52.020;5.670;2022-11-03T03:10:17;100995.19;;;9.14;78.98
69624;BME280;56843;52.020;5.670;2022-11-03T03:11:50;101007.72;;;9.13;79.20
69624;BME280;56843;52.020;5.670;2022-11-03T03:13:23;101005.38;;;9.12;79.15
69624;BME280;56843;52.020;5.670;2022-11-03T03:14:55;100996.59;;;9.11;79.16
69624;BME280;56843;52.020;5.670;2022-11-03T03:16:31;101001.91;;;9.11;79.20
69624;BME280;56843;52.020;5.670;2022-11-03T03:18:29;100994.53;;;9.08;79.15
69624;BME280;56843;52.020;5.670;2022-11-03T03:20:17;100993.56;;;9.04;79.53
69624;BME280;56843;52.020;5.670;2022-11-03T03:21:51;100987.75;;;9.02;79.58
69624;BME280;56843;52.020;5.670;2022-11-03T03:23:30;100985.41;;;9.01;79.57
69624;BME280;56843;52.020;5.670;2022-11-03T03:25:25;100989.94;;;9.00;79.73
69624;BME280;56843;52.020;5.670;2022-11-03T03:27:00;100976.16;;;8.98;79.78
69624;BME280;56843;52.020;5.670;2022-11-03T03:28:37;100976.16;;;8.98;79.85
69624;BME280;56843;52.020;5.670;2022-11-03T03:30:10;100969.72;;;8.99;79.85
69624;BME280;56843;52.020;5.670;2022-11-03T03:31:47;100970.81;;;8.98;79.97
69624;BME280;56843;52.020;5.670;2022-11-03T03:33:23;100963.91;;;8.97;79.89
69624;BME280;56843;52.020;5.670;2022-11-03T03:34:55;100964.72;;;8.98;80.09
69624;BME280;56843;52.020;5.670;2022-11-03T03:36:31;100965.78;;;8.97;80.10
69624;BME280;56843;52.020;5.670;2022-11-03T03:38:14;100964.22;;;8.96;80.33
69624;BME280;56843;52.020;5.670;2022-11-03T03:39:50;100963.44;;;8.95;80.37
69624;BME280;56843;52.020;5.670;2022-11-03T03:41:27;100964.56;;;8.94;80.33
69624;BME280;56843;52.020;5.670;2022-11-03T03:43:03;100956.25;;;8.96;80.44
69624;BME280;56843;52.020;5.670;2022-11-03T03:44:37;100951.72;;;8.96;80.11
69624;BME280;56843;52.020;5.670;2022-11-03T03:46:10;100945.75;;;8.99;80.20
69624;BME280;56843;52.020;5.670;2022-11-03T03:47:43;100938.22;;;9.01;80.01
69624;BME280;56843;52.020;5.670;2022-11-03T03:49:13;100939.50;;;9.04;79.95
69624;BME280;56843;52.020;5.670;2022-11-03T03:50:45;100941.56;;;9.07;80.03
69624;BME280;56843;52.020;5.670;2022-11-03T03:52:17;100929.03;;;9.07;80.11
69624;BME280;56843;52.020;5.670;2022-11-03T03:53:50;100940.94;;;9.10;80.03
69624;BME280;56843;52.020;5.670;2022-11-03T03:55:28;100933.72;;;9.10;80.06
69624;BME280;56843;52.020;5.670;2022-11-03T03:57:04;100937.19;;;9.11;80.18
69624;BME280;56843;52.020;5.670;2022-11-03T03:58:36;100928.41;;;9.10;80.17
69624;BME280;56843;52.020;5.670;2022-11-03T04:00:13;100931.53;;;9.12;80.00
69624;BME280;56843;52.020;5.670;2022-11-03T04:01:45;100929.66;;;9.13;80.15
69624;BME280;56843;52.020;5.670;2022-11-03T04:03:21;100925.13;;;9.13;80.01
69624;BME280;56843;52.020;5.670;2022-11-03T04:04:55;100924.00;;;9.14;80.12
69624;BME280;56843;52.020;5.670;2022-11-03T04:06:28;100917.59;;;9.15;80.21
69624;BME280;56843;52.020;5.670;2022-11-03T04:07:59;100921.06;;;9.16;80.23
69624;BME280;56843;52.020;5.670;2022-11-03T04:09:29;100919.94;;;9.17;80.06
69624;BME280;56843;52.020;5.670;2022-11-03T04:11:00;100916.19;;;9.18;80.23
69624;BME280;56843;52.020;5.670;2022-11-03T04:12:49;100914.31;;;9.18;80.21
69624;BME280;56843;52.020;5.670;2022-11-03T04:14:39;100913.53;;;9.18;80.03
69624;BME280;56843;52.020;5.670;2022-11-03T04:16:28;100919.19;;;9.16;80.10
69624;BME280;56843;52.020;5.670;2022-11-03T04:18:18;100900.53;;;9.16;80.34
69624;BME280;56843;52.020;5.670;2022-11-03T04:20:11;100913.06;;;9.16;80.17
69624;BME280;56843;52.020;5.670;2022-11-03T04:22:01;100905.38;;;9.14;80.26
69624;BME280;56843;52.020;5.670;2022-11-03T04:23:47;100908.03;;;9.14;80.45
69624;BME280;56843;52.020;5.670;2022-11-03T04:25:18;100920.25;;;9.15;80.20
69624;BME280;56843;52.020;5.670;2022-11-03T04:26:48;100914.63;;;9.17;80.44
69624;BME280;56843;52.020;5.670;2022-11-03T04:28:19;100918.88;;;9.18;80.48
69624;BME280;56843;52.020;5.670;2022-11-03T04:29:51;100916.69;;;9.20;80.30
69624;BME280;56843;52.020;5.670;2022-11-03T04:31:22;100915.88;;;9.19;80.18
69624;BME280;56843;52.020;5.670;2022-11-03T04:32:53;100903.81;;;9.22;80.35
69624;BME280;56843;52.020;5.670;2022-11-03T04:34:23;100906.16;;;9.23;80.11
69624;BME280;56843;52.020;5.670;2022-11-03T04:35:56;100913.41;;;9.23;80.23
69624;BME280;56843;52.020;5.670;2022-11-03T04:37:30;100904.63;;;9.22;80.33
69624;BME280;56843;52.020;5.670;2022-11-03T04:39:12;100903.50;;;9.23;80.36
69624;BME280;56843;52.020;5.670;2022-11-03T04:40:46;100900.38;;;9.21;80.60
69624;BME280;56843;52.020;5.670;2022-11-03T04:42:20;100904.94;;;9.21;80.17
69624;BME280;56843;52.020;5.670;2022-11-03T04:43:51;100891.91;;;9.19;80.32
69624;BME280;56843;52.020;5.670;2022-11-03T04:45:30;100903.66;;;9.18;80.50
69624;BME280;56843;52.020;5.670;2022-11-03T04:47:07;100898.03;;;9.20;80.66
69624;BME280;56843;52.020;5.670;2022-11-03T04:48:39;100897.22;;;9.19;80.69
69624;BME280;56843;52.020;5.670;2022-11-03T04:50:16;100889.22;;;9.19;80.51
69624;BME280;56843;52.020;5.670;2022-11-03T04:51:48;100888.44;;;9.19;80.78
69624;BME280;56843;52.020;5.670;2022-11-03T04:53:20;100884.69;;;9.20;80.85
69624;BME280;56843;52.020;5.670;2022-11-03T04:54:52;100885.50;;;9.20;80.81
69624;BME280;56843;52.020;5.670;2022-11-03T04:56:24;100884.69;;;9.20;80.73
69624;BME280;56843;52.020;5.670;2022-11-03T04:58:03;100886.56;;;9.19;80.85
69624;BME280;56843;52.020;5.670;2022-11-03T04:59:34;100877.03;;;9.18;80.98
69624;BME280;56843;52.020;5.670;2022-11-03T05:01:10;100877.03;;;9.18;80.96
69624;BME280;56843;52.020;5.670;2022-11-03T05:02:46;100869.31;;;9.17;81.15
69624;BME280;56843;52.020;5.670;2022-11-03T05:04:18;100867.31;;;9.14;81.14
69624;BME280;56843;52.020;5.670;2022-11-03T05:05:48;100863.84;;;9.13;81.11
69624;BME280;56843;52.020;5.670;2022-11-03T05:07:29;100864.16;;;9.12;81.13
69624;BME280;56843;52.020;5.670;2022-11-03T05:09:10;100860.72;;;9.11;81.20
69624;BME280;56843;52.020;5.670;2022-11-03T05:10:41;100862.91;;;9.09;81.21
69624;BME280;56843;52.020;5.670;2022-11-03T05:12:12;100861.78;;;9.10;81.31
69624;BME280;56843;52.020;5.670;2022-11-03T05:13:43;100858.66;;;9.08;81.54
69624;BME280;56843;52.020;5.670;2022-11-03T05:15:33;100859.13;;;9.10;81.44
69624;BME280;56843;52.020;5.670;2022-11-03T05:17:14;100864.78;;;9.09;81.67
69624;BME280;56843;52.020;5.670;2022-11-03T05:18:48;100850.19;;;9.06;81.69
69624;BME280;56843;52.020;5.670;2022-11-03T05:20:38;100858.50;;;9.05;81.73
69624;BME280;56843;52.020;5.670;2022-11-03T05:22:15;100847.84;;;9.05;81.80
69624;BME280;56843;52.020;5.670;2022-11-03T05:23:55;100847.06;;;9.04;81.77
69624;BME280;56843;52.020;5.670;2022-11-03T05:25:36;100847.84;;;9.05;81.90
69624;BME280;56843;52.020;5.670;2022-11-03T05:27:13;100845.97;;;9.05;81.93
69624;BME280;56843;52.020;5.670;2022-11-03T05:28:54;100841.72;;;9.04;81.98
69624;BME280;56843;52.020;5.670;2022-11-03T05:30:29;100839.06;;;9.04;82.12
69624;BME280;56843;52.020;5.670;2022-11-03T05:32:00;100837.97;;;9.05;82.24
69624;BME280;56843;52.020;5.670;2022-11-03T05:33:33;100824.34;;;9.07;81.95
69624;BME280;56843;52.020;5.670;2022-11-03T05:35:17;100830.13;;;9.09;82.10
69624;BME280;56843;52.020;5.670;2022-11-03T05:36:48;100826.41;;;9.10;82.05
69624;BME280;56843;52.020;5.670;2022-11-03T05:38:20;100820.44;;;9.13;82.10
69624;BME280;56843;52.020;5.670;2022-11-03T05:39:54;100817.44;;;9.14;81.97
69624;BME280;56843;52.020;5.670;2022-11-03T05:41:28;100806.03;;;9.14;81.98
69624;BME280;56843;52.020;5.670;2022-11-03T05:43:00;100822.47;;;9.16;82.13
69624;BME280;56843;52.020;5.670;2022-11-03T05:44:33;100811.97;;;9.19;82.09
69624;BME280;56843;52.020;5.670;2022-11-03T05:46:08;100814.00;;;9.22;82.05
69624;BME280;56843;52.020;5.670;2022-11-03T05:47:39;100806.81;;;9.23;81.68
69624;BME280;56843;52.020;5.670;2022-11-03T05:49:10;100801.16;;;9.24;81.87
69624;BME280;56843;52.020;5.670;2022-11-03T05:50:41;100793.97;;;9.25;81.65
69624;BME280;56843;52.020;5.670;2022-11-03T05:52:17;100798.66;;;9.28;81.86
69624;BME280;56843;52.020;5.670;2022-11-03T05:53:52;100789.25;;;9.30;81.93
69624;BME280;56843;52.020;5.670;2022-11-03T05:56:56;100795.97;;;9.36;82.19
69624;BME280;56843;52.020;5.670;2022-11-03T05:58:38;100785.50;;;9.40;81.76
69624;BME280;56843;52.020;5.670;2022-11-03T06:00:34;100787.03;;;9.41;81.90
69624;BME280;56843;52.020;5.670;2022-11-03T06:02:21;100792.06;;;9.42;81.77
69624;BME280;56843;52.020;5.670;2022-11-03T06:03:54;100793.63;;;9.43;81.97
69624;BME280;56843;52.020;5.670;2022-11-03T06:05:26;100793.00;;;9.46;81.85
69624;BME280;56843;52.020;5.670;2022-11-03T06:07:30;100788.94;;;9.49;81.77
69624;BME280;56843;52.020;5.670;2022-11-03T06:08:56;100790.81;;;9.48;81.72
69624;BME280;56843;52.020;5.670;2022-11-03T06:10:31;100780.63;;;9.50;81.75
69624;BME280;56843;52.020;5.670;2022-11-03T06:12:04;100780.28;;;9.52;81.97
69624;BME280;56843;52.020;5.670;2022-11-03T06:13:36;100779.53;;;9.51;81.83
69624;BME280;56843;52.020;5.670;2022-11-03T06:15:21;100782.66;;;9.53;81.75
69624;BME280;56843;52.020;5.670;2022-11-03T06:17:01;100777.31;;;9.53;81.82
69624;BME280;56843;52.020;5.670;2022-11-03T06:18:36;100778.88;;;9.54;81.85
69624;BME280;56843;52.020;5.670;2022-11-03T06:20:15;100778.59;;;9.56;81.70
69624;BME280;56843;52.020;5.670;2022-11-03T06:21:51;100784.69;;;9.56;81.96
69624;BME280;56843;52.020;5.670;2022-11-03T06:23:25;100779.81;;;9.58;81.80
69624;BME280;56843;52.020;5.670;2022-11-03T06:25:08;100774.47;;;9.58;81.76
69624;BME280;56843;52.020;5.670;2022-11-03T06:26:42;100767.59;;;9.57;81.94
69624;BME280;56843;52.020;5.670;2022-11-03T06:28:25;100771.50;;;9.60;81.98
69624;BME280;56843;52.020;5.670;2022-11-03T06:30:25;100761.63;;;9.60;81.78
69624;BME280;56843;52.020;5.670;2022-11-03T06:31:57;100767.72;;;9.61;81.69
69624;BME280;56843;52.020;5.670;2022-11-03T06:33:35;100758.97;;;9.60;82.01
69624;BME280;56843;52.020;5.670;2022-11-03T06:35:09;100764.78;;;9.63;82.10
69624;BME280;56843;52.020;5.670;2022-11-03T06:36:42;100757.53;;;9.63;81.95
69624;BME280;56843;52.020;5.670;2022-11-03T06:38:21;100753.44;;;9.66;81.87
69624;BME280;56843;52.020;5.670;2022-11-03T06:39:57;100751.13;;;9.64;81.92
69624;BME280;56843;52.020;5.670;2022-11-03T06:41:31;100757.22;;;9.65;82.18
69624;BME280;56843;52.020;5.670;2022-11-03T06:43:12;100751.91;;;9.65;82.23
69624;BME280;56843;52.020;5.670;2022-11-03T06:44:45;100748.13;;;9.66;82.37
69624;BME280;56843;52.020;5.670;2022-11-03T06:46:21;100744.84;;;9.69;82.50
69624;BME280;56843;52.020;5.670;2022-11-03T06:48:10;100741.53;;;9.72;82.39
69624;BME280;56843;52.020;5.670;2022-11-03T06:49:46;100740.44;;;9.73;82.53
69624;BME280;56843;52.020;5.670;2022-11-03T06:51:25;100739.81;;;9.76;82.46
69624;BME280;56843;52.020;5.670;2022-11-03T06:52:58;100745.13;;;9.76;82.46
69624;BME280;56843;52.020;5.670;2022-11-03T06:54:30;100736.81;;;9.77;82.20
69624;BME280;56843;52.020;5.670;2022-11-03T06:56:01;100733.81;;;9.79;82.33
69624;BME280;56843;52.020;5.670;2022-11-03T06:57:35;100736.94;;;9.81;82.37
69624;BME280;56843;52.020;5.670;2022-11-03T06:59:12;100734.28;;;9.81;82.41
69624;BME280;56843;52.020;5.670;2022-11-03T07:00:43;100740.41;;;9.81;82.37
69624;BME280;56843;52.020;5.670;2022-11-03T07:02:55;100728.31;;;9.84;82.26
69624;BME280;56843;52.020;5.670;2022-11-03T07:04:25;100726.59;;;9.79;82.33
69624;BME280;56843;52.020;5.670;2022-11-03T07:06:10;100726.75;;;9.83;82.46
69624;BME280;56843;52.020;5.670;2022-11-03T07:07:43;100717.66;;;9.84;82.55
69624;BME280;56843;52.020;5.670;2022-11-03T07:09:26;100725.31;;;9.85;82.26
69624;BME280;56843;52.020;5.670;2022-11-03T07:12:43;100725.03;;;9.87;82.26
69624;BME280;56843;52.020;5.670;2022-11-03T07:14:15;100730.81;;;9.89;82.02
69624;BME280;56843;52.020;5.670;2022-11-03T07:15:47;100727.81;;;9.90;82.41
69624;BME280;56843;52.020;5.670;2022-11-03T07:17:21;100727.50;;;9.92;82.28
69624;BME280;56843;52.020;5.670;2022-11-03T07:18:53;100727.19;;;9.93;82.45
69624;BME280;56843;52.020;5.670;2022-11-03T07:20:27;100731.56;;;9.98;82.06
69624;BME280;56843;52.020;5.670;2022-11-03T07:22:00;100723.25;;;9.99;82.29
69624;BME280;56843;52.020;5.670;2022-11-03T07:23:31;100727.16;;;10.02;82.00
69624;BME280;56843;52.020;5.670;2022-11-03T07:25:04;100732.94;;;10.04;82.07
69624;BME280;56843;52.020;5.670;2022-11-03T07:26:35;100742.53;;;10.05;81.92
69624;BME280;56843;52.020;5.670;2022-11-03T07:28:08;100731.53;;;10.06;81.83
69624;BME280;56843;52.020;5.670;2022-11-03T07:29:40;100732.00;;;10.08;81.96
69624;BME280;56843;52.020;5.670;2022-11-03T07:31:17;100738.59;;;10.11;81.90
69624;BME280;56843;52.020;5.670;2022-11-03T07:32:53;100736.38;;;10.13;81.87
69624;BME280;56843;52.020;5.670;2022-11-03T07:34:27;100729.16;;;10.13;81.59
69624;BME280;56843;52.020;5.670;2022-11-03T07:35:59;100723.97;;;10.17;81.47
69624;BME280;56843;52.020;5.670;2022-11-03T07:37:29;100730.91;;;10.18;81.33
69624;BME280;56843;52.020;5.670;2022-11-03T07:39:00;100724.91;;;10.21;81.34
69624;BME280;56843;52.020;5.670;2022-11-03T07:40:32;100728.47;;;10.25;81.49
69624;BME280;56843;52.020;5.670;2022-11-03T07:42:21;100727.84;;;10.28;81.30
69624;BME280;56843;52.020;5.670;2022-11-03T07:43:56;100729.44;;;10.29;80.99
69624;BME280;56843;52.020;5.670;2022-11-03T07:45:36;100732.56;;;10.31;81.01
69624;BME280;56843;52.020;5.670;2022-11-03T07:47:18;100715.88;;;10.34;81.00
69624;BME280;56843;52.020;5.670;2022-11-03T07:48:53;100729.69;;;10.36;80.96
69624;BME280;56843;52.020;5.670;2022-11-03T07:50:24;100722.63;;;10.40;80.72
69624;BME280;56843;52.020;5.670;2022-11-03T07:51:56;100713.94;;;10.43;80.73
69624;BME280;56843;52.020;5.670;2022-11-03T07:53:45;100720.19;;;10.47;80.50
69624;BME280;56843;52.020;5.670;2022-11-03T07:55:15;100715.66;;;10.48;80.36
69624;BME280;56843;52.020;5.670;2022-11-03T07:56:59;100704.00;;;10.52;80.31
69624;BME280;56843;52.020;5.670;2022-11-03T07:58:37;100709.00;;;10.54;80.25
69624;BME280;56843;52.020;5.670;2022-11-03T08:00:14;100702.25;;;10.56;80.35
69624;BME280;56843;52.020;5.670;2022-11-03T08:01:55;100714.16;;;10.59;80.11
69624;BME280;56843;52.020;5.670;2022-11-03T08:03:44;100706.31;;;10.62;80.13
69624;BME280;56843;52.020;5.670;2022-11-03T08:05:15;100704.84;;;10.65;79.92
69624;BME280;56843;52.020;5.670;2022-11-03T08:06:46;100704.22;;;10.68;79.88
69624;BME280;56843;52.020;5.670;2022-11-03T08:08:17;100709.66;;;10.71;79.93
69624;BME280;56843;52.020;5.670;2022-11-03T08:09:48;100709.03;;;10.74;79.68
69624;BME280;56843;52.020;5.670;2022-11-03T08:11:19;100696.28;;;10.80;79.56
69624;BME280;56843;52.020;5.670;2022-11-03T08:12:49;100703.31;;;10.84;79.36
69624;BME280;56843;52.020;5.670;2022-11-03T08:14:20;100699.19;;;10.87;79.23
69624;BME280;56843;52.020;5.670;2022-11-03T08:15:50;100706.56;;;10.90;79.13
69624;BME280;56843;52.020;5.670;2022-11-03T08:17:21;100713.16;;;10.92;79.08
69624;BME280;56843;52.020;5.670;2022-11-03T08:18:51;100702.56;;;10.96;78.95
69624;BME280;56843;52.020;5.670;2022-11-03T08:20:21;100701.59;;;11.00;78.89
69624;BME280;56843;52.020;5.670;2022-11-03T08:21:52;100688.03;;;11.05;78.98
69624;BME280;56843;52.020;5.670;2022-11-03T08:23:23;100695.06;;;11.10;78.81
69624;BME280;56843;52.020;5.670;2022-11-03T08:24:53;100692.22;;;11.15;78.64
69624;BME280;56843;52.020;5.670;2022-11-03T08:26:24;100685.09;;;11.19;78.41
69624;BME280;56843;52.020;5.670;2022-11-03T08:27:54;100687.88;;;11.23;78.27
69624;BME280;56843;52.020;5.670;2022-11-03T08:29:25;100688.03;;;11.26;78.24
69624;BME280;56843;52.020;5.670;2022-11-03T08:30:56;100686.59;;;11.29;77.94
69624;BME280;56843;52.020;5.670;2022-11-03T08:32:30;100680.56;;;11.32;77.96
69624;BME280;56843;52.020;5.670;2022-11-03T08:34:01;100681.47;;;11.36;77.89